Time;durP1;ratioP1;P1;durP2;ratioP2;P2;SDS_P1;SDS_P2;PMS_P1;PMS_P2;Temp;Humidity;BMP_temperature;BMP_pressure;BME280_temperature;BME280_humidity;BME280_pressure;Samples;Min_cycle;Max_cycle;Signal;HPM_P1;HPM_P2
2023/10/04 00:00:14;;;;;;;;;;;17.90;58.50;;;;;;5023549;28;115554;-82
2023/10/04 00:02:43;;;;;;;;;;;18.00;58.30;;;;;;5022504;28;114543;-81
2023/10/04 00:05:15;;;;;;;;;;;18.20;58.10;;;;;;4990446;28;114515;-82
2023/10/04 00:07:42;;;;;;;;;;;18.20;57.90;;;;;;5006748;28;114291;-82
2023/10/04 00:10:10;;;;;;;;;;;18.20;58.00;;;;;;5005062;28;114797;-81
2023/10/04 00:12:37;;;;;;;;;;;18.20;57.90;;;;;;5005434;28;114626;-82
2023/10/04 00:15:09;;;;;;;;;;;18.20;58.00;;;;;;5006138;28;114208;-82
2023/10/04 00:17:39;;;;;;;;;;;18.20;57.90;;;;;;5006159;28;114470;-82
2023/10/04 00:20:13;;;;;;;;;;;18.20;58.00;;;;;;4968606;28;118058;-80
2023/10/04 00:22:42;;;;;;;;;;;18.20;58.20;;;;;;5002220;28;114355;-82
2023/10/04 00:25:11;;;;;;;;;;;18.20;58.10;;;;;;5003998;28;114051;-80
2023/10/04 00:27:41;;;;;;;;;;;18.20;58.10;;;;;;5004338;28;114053;-80
2023/10/04 00:30:14;;;;;;;;;;;18.30;58.10;;;;;;5001863;28;114943;-81
2023/10/04 00:32:42;;;;;;;;;;;18.30;57.90;;;;;;5002278;28;115644;-81
2023/10/04 00:35:12;;;;;;;;;;;18.30;57.90;;;;;;4985527;28;114456;-81
2023/10/04 00:37:42;;;;;;;;;;;18.30;57.90;;;;;;5002196;28;114337;-82
2023/10/04 00:40:12;;;;;;;;;;;18.30;57.80;;;;;;4985306;28;117848;-81
2023/10/04 00:42:40;;;;;;;;;;;18.30;57.80;;;;;;4969085;28;117967;-81
2023/10/04 00:45:13;;;;;;;;;;;18.30;57.70;;;;;;5003644;28;114075;-81
2023/10/04 00:47:41;;;;;;;;;;;18.30;58.10;;;;;;4988221;28;114360;-81
2023/10/04 00:50:16;;;;;;;;;;;18.20;58.10;;;;;;5005312;28;115050;-81
2023/10/04 00:52:51;;;;;;;;;;;18.10;58.20;;;;;;5006779;28;114658;-81
2023/10/04 00:55:19;;;;;;;;;;;18.10;58.40;;;;;;4988980;28;116208;-82
2023/10/04 00:57:48;;;;;;;;;;;18.10;58.40;;;;;;5004736;28;114753;-81
2023/10/04 01:00:17;;;;;;;;;;;18.10;58.40;;;;;;4971873;28;116292;-82
2023/10/04 01:02:44;;;;;;;;;;;18.20;58.30;;;;;;4988644;28;114547;-82
2023/10/04 01:05:12;;;;;;;;;;;18.20;58.30;;;;;;4972886;28;114170;-81
2023/10/04 01:07:39;;;;;;;;;;;18.20;58.20;;;;;;4989336;28;114505;-83
2023/10/04 01:10:06;;;;;;;;;;;18.20;58.20;;;;;;5004924;28;115397;-82
2023/10/04 01:12:33;;;;;;;;;;;18.30;58.10;;;;;;5004958;28;114537;-81
2023/10/04 01:15:12;;;;;;;;;;;18.30;58.20;;;;;;5006770;28;114499;-82
2023/10/04 01:17:39;;;;;;;;;;;18.20;58.40;;;;;;5007235;28;114088;-81
2023/10/04 01:20:11;;;;;;;;;;;18.10;58.90;;;;;;4988160;28;115514;-82
2023/10/04 01:22:38;;;;;;;;;;;17.70;58.70;;;;;;5005856;28;114550;-82
2023/10/04 01:25:05;;;;;;;;;;;17.30;59.00;;;;;;5005040;28;114477;-80
2023/10/04 01:27:34;;;;;;;;;;;17.00;59.10;;;;;;5004404;28;114467;-81
2023/10/04 01:30:01;;;;;;;;;;;16.80;59.40;;;;;;5004529;28;115001;-82
2023/10/04 01:32:28;;;;;;;;;;;16.90;59.00;;;;;;4988155;28;114627;-81
2023/10/04 01:34:56;;;;;;;;;;;16.80;58.80;;;;;;5006539;28;114240;-82
2023/10/04 01:37:23;;;;;;;;;;;16.70;58.50;;;;;;5004601;28;114265;-82
2023/10/04 01:39:54;;;;;;;;;;;16.60;58.70;;;;;;4988052;28;114832;-79
2023/10/04 01:42:22;;;;;;;;;;;16.50;58.90;;;;;;5004406;28;115231;-80
2023/10/04 01:44:49;;;;;;;;;;;16.70;58.90;;;;;;4991464;28;114709;-82
2023/10/04 01:47:16;;;;;;;;;;;16.80;58.90;;;;;;5026496;27;114089;-81
2023/10/04 01:49:43;;;;;;;;;;;17.00;58.70;;;;;;5023872;28;115967;-82
2023/10/04 01:52:10;;;;;;;;;;;17.10;58.40;;;;;;5024345;28;114713;-81
2023/10/04 01:54:38;;;;;;;;;;;17.20;58.20;;;;;;5024938;28;114374;-81
2023/10/04 01:57:05;;;;;;;;;;;17.20;58.00;;;;;;5025880;28;114170;-82
2023/10/04 01:59:32;;;;;;;;;;;17.30;58.00;;;;;;5024321;28;115001;-82
2023/10/04 02:02:00;;;;;;;;;;;17.30;58.00;;;;;;5025390;28;114618;-82
2023/10/04 02:04:28;;;;;;;;;;;17.30;58.00;;;;;;5026195;28;114326;-82
2023/10/04 02:06:55;;;;;;;;;;;17.40;57.70;;;;;;5024467;28;114619;-82
2023/10/04 02:09:22;;;;;;;;;;;17.30;57.60;;;;;;5025279;28;115475;-81
2023/10/04 02:11:49;;;;;;;;;;;17.40;57.50;;;;;;5023690;28;114773;-82
2023/10/04 02:14:16;;;;;;;;;;;17.30;57.40;;;;;;5024357;28;114398;-82
2023/10/04 02:16:43;;;;;;;;;;;17.30;57.40;;;;;;5024870;28;114668;-81
2023/10/04 02:19:12;;;;;;;;;;;17.20;57.20;;;;;;5025142;27;114957;-82
2023/10/04 02:21:39;;;;;;;;;;;17.10;57.00;;;;;;5023190;28;116917;-82
2023/10/04 02:24:06;;;;;;;;;;;16.90;57.10;;;;;;5025999;27;114329;-81
2023/10/04 02:26:35;;;;;;;;;;;16.80;57.20;;;;;;5024692;28;114226;-82
2023/10/04 02:29:09;;;;;;;;;;;16.80;57.40;;;;;;5023846;28;115972;-81
2023/10/04 02:31:36;;;;;;;;;;;16.80;57.60;;;;;;5025240;28;114606;-81
2023/10/04 02:34:05;;;;;;;;;;;16.80;57.50;;;;;;5024928;27;114356;-82
2023/10/04 02:36:37;;;;;;;;;;;16.90;57.30;;;;;;5025577;28;114233;-82
2023/10/04 02:39:11;;;;;;;;;;;16.80;57.30;;;;;;5023038;28;114775;-81
2023/10/04 02:41:38;;;;;;;;;;;16.80;57.10;;;;;;5023477;28;114873;-81
2023/10/04 02:44:07;;;;;;;;;;;16.80;57.00;;;;;;5025573;27;114054;-82
2023/10/04 02:46:35;;;;;;;;;;;16.70;57.10;;;;;;5023917;28;114614;-82
2023/10/04 02:49:03;;;;;;;;;;;16.60;56.90;;;;;;5023506;27;117650;-83
2023/10/04 02:51:30;;;;;;;;;;;16.50;57.00;;;;;;5023184;28;117334;-82
2023/10/04 02:53:57;;;;;;;;;;;16.50;57.10;;;;;;5023188;28;114351;-82
2023/10/04 02:56:24;;;;;;;;;;;16.60;57.30;;;;;;5024400;28;114582;-80
2023/10/04 02:58:51;;;;;;;;;;;16.70;57.30;;;;;;5023196;28;115030;-81
2023/10/04 03:01:26;;;;;;;;;;;16.80;57.20;;;;;;5006469;28;115894;-81
2023/10/04 03:03:55;;;;;;;;;;;16.90;57.10;;;;;;5023525;28;114202;-81
2023/10/04 03:06:26;;;;;;;;;;;17.00;56.90;;;;;;5023955;28;114404;-81
2023/10/04 03:08:56;;;;;;;;;;;17.00;57.10;;;;;;5022333;28;114933;-82
2023/10/04 03:11:27;;;;;;;;;;;17.20;57.10;;;;;;5023125;28;115104;-81
2023/10/04 03:13:54;;;;;;;;;;;17.20;57.10;;;;;;5023759;28;114163;-82
2023/10/04 03:16:21;;;;;;;;;;;17.30;57.00;;;;;;5023828;28;114287;-81
2023/10/04 03:18:50;;;;;;;;;;;17.40;56.90;;;;;;5006423;28;115184;-82
2023/10/04 03:21:20;;;;;;;;;;;17.50;57.00;;;;;;5022962;28;115106;-82
2023/10/04 03:23:49;;;;;;;;;;;17.60;56.80;;;;;;5023742;28;114484;-82
2023/10/04 03:26:19;;;;;;;;;;;17.60;56.70;;;;;;5023720;28;114191;-82
2023/10/04 03:28:53;;;;;;;;;;;17.60;56.70;;;;;;5022284;28;115314;-82
2023/10/04 03:31:25;;;;;;;;;;;17.70;56.70;;;;;;5022753;28;114665;-82
2023/10/04 03:33:55;;;;;;;;;;;17.70;56.60;;;;;;5007365;28;114279;-82
2023/10/04 03:36:26;;;;;;;;;;;17.70;56.40;;;;;;5024847;28;114213;-83
2023/10/04 03:38:57;;;;;;;;;;;17.70;56.50;;;;;;5022862;28;115106;-81
2023/10/04 03:41:24;;;;;;;;;;;17.70;56.60;;;;;;5005289;28;117318;-81
2023/10/04 03:43:57;;;;;;;;;;;17.80;56.50;;;;;;5023657;28;114279;-83
2023/10/04 03:46:24;;;;;;;;;;;17.80;56.50;;;;;;5023796;28;114639;-82
2023/10/04 03:48:56;;;;;;;;;;;17.90;56.40;;;;;;5022477;28;117218;-81
2023/10/04 03:51:23;;;;;;;;;;;17.90;56.20;;;;;;5022595;28;115214;-81
2023/10/04 03:53:57;;;;;;;;;;;17.80;56.20;;;;;;5022939;28;114257;-82
2023/10/04 03:56:27;;;;;;;;;;;17.80;56.00;;;;;;5022849;28;114326;-82
2023/10/04 03:58:54;;;;;;;;;;;17.80;56.00;;;;;;5022266;28;114984;-81
2023/10/04 04:01:21;;;;;;;;;;;17.80;56.10;;;;;;5023702;28;114589;-81
2023/10/04 04:03:49;;;;;;;;;;;17.80;56.20;;;;;;5024303;28;114287;-82
2023/10/04 04:06:17;;;;;;;;;;;17.80;56.00;;;;;;5023031;28;114305;-82
2023/10/04 04:08:46;;;;;;;;;;;17.80;56.00;;;;;;5005412;28;116304;-82
2023/10/04 04:11:14;;;;;;;;;;;17.80;55.90;;;;;;5023824;27;114630;-83
2023/10/04 04:13:44;;;;;;;;;;;17.80;56.00;;;;;;5022754;28;114471;-82
2023/10/04 04:16:15;;;;;;;;;;;17.80;55.90;;;;;;5022905;28;114372;-83
2023/10/04 04:18:42;;;;;;;;;;;17.80;55.90;;;;;;5005472;28;114910;-82
2023/10/04 04:21:09;;;;;;;;;;;17.80;55.90;;;;;;5036875;27;114176;-81
2023/10/04 04:23:37;;;;;;;;;;;17.80;55.90;;;;;;5029783;27;114375;-81
2023/10/04 04:26:07;;;;;;;;;;;17.80;56.00;;;;;;5029833;27;114276;-80
2023/10/04 04:28:40;;;;;;;;;;;17.80;55.90;;;;;;5028955;27;114966;-81
2023/10/04 04:31:20;;;;;;;;;;;17.90;56.00;;;;;;5029243;27;114626;-81
2023/10/04 04:33:47;;;;;;;;;;;17.80;55.90;;;;;;5047897;27;114269;-82
2023/10/04 04:36:26;;;;;;;;;;;17.90;55.90;;;;;;5014399;27;114271;-80
2023/10/04 04:38:58;;;;;;;;;;;17.80;55.80;;;;;;5028685;27;114841;-81
2023/10/04 04:41:29;;;;;;;;;;;17.80;55.90;;;;;;5028744;27;114565;-83
2023/10/04 04:43:56;;;;;;;;;;;17.80;55.80;;;;;;5029212;27;114197;-82
2023/10/04 04:46:23;;;;;;;;;;;17.80;55.80;;;;;;5029813;27;114296;-82
2023/10/04 04:48:54;;;;;;;;;;;17.70;55.40;;;;;;5011047;27;115106;-81
2023/10/04 04:51:23;;;;;;;;;;;17.40;55.60;;;;;;5012885;27;115141;-81
2023/10/04 04:53:53;;;;;;;;;;;17.30;56.00;;;;;;5029380;27;114131;-82
2023/10/04 04:56:31;;;;;;;;;;;17.30;56.10;;;;;;5030598;27;114258;-81
2023/10/04 04:59:07;;;;;;;;;;;17.30;56.20;;;;;;5028540;27;115159;-81
2023/10/04 05:01:39;;;;;;;;;;;17.40;56.30;;;;;;5028666;27;116098;-82
2023/10/04 05:04:07;;;;;;;;;;;17.50;56.20;;;;;;5029281;27;114347;-83
2023/10/04 05:06:36;;;;;;;;;;;17.50;56.20;;;;;;5047205;27;114533;-81
2023/10/04 05:09:04;;;;;;;;;;;17.60;56.10;;;;;;5046174;27;114913;-83
2023/10/04 05:11:32;;;;;;;;;;;17.60;56.00;;;;;;5028683;27;114715;-81
2023/10/04 05:14:00;;;;;;;;;;;17.60;56.10;;;;;;5047289;27;114379;-83
2023/10/04 05:16:30;;;;;;;;;;;17.60;56.10;;;;;;5029403;27;114196;-82
2023/10/04 05:18:58;;;;;;;;;;;17.70;56.10;;;;;;5046287;27;115048;-82
2023/10/04 05:21:25;;;;;;;;;;;17.70;56.10;;;;;;5045609;27;114569;-82
2023/10/04 05:23:55;;;;;;;;;;;17.70;56.10;;;;;;5047000;27;114205;-83
2023/10/04 05:26:23;;;;;;;;;;;17.70;56.00;;;;;;5047655;27;114178;-82
2023/10/04 05:28:52;;;;;;;;;;;17.70;55.90;;;;;;5046233;27;115270;-81
2023/10/04 05:31:19;;;;;;;;;;;17.70;55.80;;;;;;5046285;27;114483;-81
2023/10/04 05:33:46;;;;;;;;;;;17.60;55.90;;;;;;5045426;27;114402;-81
2023/10/04 05:36:13;;;;;;;;;;;17.70;56.00;;;;;;5047252;27;114254;-82
2023/10/04 05:38:40;;;;;;;;;;;17.60;56.00;;;;;;5027940;27;114839;-81
2023/10/04 05:41:09;;;;;;;;;;;17.60;55.80;;;;;;5044856;27;117033;-82
2023/10/04 05:43:36;;;;;;;;;;;17.60;55.80;;;;;;5046740;27;114510;-81
2023/10/04 05:46:06;;;;;;;;;;;17.70;55.90;;;;;;5046787;27;114072;-81
2023/10/04 05:48:34;;;;;;;;;;;17.80;55.80;;;;;;5045990;27;114898;-81
2023/10/04 05:51:02;;;;;;;;;;;17.90;55.80;;;;;;5046239;27;114755;-83
2023/10/04 05:53:29;;;;;;;;;;;18.10;55.60;;;;;;5046635;27;114208;-82
2023/10/04 05:55:57;;;;;;;;;;;18.30;55.50;;;;;;5046415;27;114011;-82
2023/10/04 05:58:25;;;;;;;;;;;18.40;55.30;;;;;;5009455;27;114856;-82
2023/10/04 06:00:52;;;;;;;;;;;18.50;55.20;;;;;;5027926;27;115127;-82
2023/10/04 06:03:20;;;;;;;;;;;18.70;54.90;;;;;;5028727;27;114409;-81
2023/10/04 06:05:50;;;;;;;;;;;18.70;54.80;;;;;;5028445;27;114413;-82
2023/10/04 06:08:27;;;;;;;;;;;18.80;54.70;;;;;;5027626;27;115368;-83
2023/10/04 06:10:54;;;;;;;;;;;18.90;54.60;;;;;;5045470;27;114589;-81
2023/10/04 06:13:22;;;;;;;;;;;19.00;54.40;;;;;;5046330;27;114364;-83
2023/10/04 06:15:56;;;;;;;;;;;19.20;54.30;;;;;;5046661;27;114266;-82
2023/10/04 06:18:29;;;;;;;;;;;19.20;54.00;;;;;;5045408;27;114950;-82
2023/10/04 06:20:58;;;;;;;;;;;19.20;54.00;;;;;;5045045;27;115778;-81
2023/10/04 06:23:25;;;;;;;;;;;19.30;53.80;;;;;;5045680;27;114236;-81
2023/10/04 06:25:53;;;;;;;;;;;19.30;53.80;;;;;;5046048;27;114075;-82
2023/10/04 06:28:20;;;;;;;;;;;19.40;53.90;;;;;;5027307;27;115572;-82
2023/10/04 06:30:52;;;;;;;;;;;19.50;53.70;;;;;;5045909;27;115101;-81
2023/10/04 06:33:19;;;;;;;;;;;19.60;53.60;;;;;;5028592;27;114524;-82
2023/10/04 06:35:47;;;;;;;;;;;19.60;53.50;;;;;;5027889;27;114169;-83
2023/10/04 06:38:14;;;;;;;;;;;19.70;53.50;;;;;;5010321;27;118131;-82
2023/10/04 06:40:42;;;;;;;;;;;19.80;53.30;;;;;;5010329;27;117801;-82
2023/10/04 06:43:10;;;;;;;;;;;19.80;53.20;;;;;;5011595;27;114165;-82
2023/10/04 06:45:37;;;;;;;;;;;19.80;53.00;;;;;;5026428;27;114493;-81
2023/10/04 06:48:05;;;;;;;;;;;19.80;52.80;;;;;;5044966;27;114877;-82
2023/10/04 06:50:38;;;;;;;;;;;19.80;52.70;;;;;;5027293;27;114780;-83
2023/10/04 06:53:08;;;;;;;;;;;19.80;52.60;;;;;;5045705;27;114301;-83
2023/10/04 06:55:37;;;;;;;;;;;19.90;52.40;;;;;;5026528;27;114767;-82
2023/10/04 06:58:06;;;;;;;;;;;19.90;51.60;;;;;;5044779;27;114327;-82
2023/10/04 07:00:36;;;;;;;;;;;19.80;51.50;;;;;;5044970;27;115247;-82
2023/10/04 07:03:04;;;;;;;;;;;19.70;51.50;;;;;;5027756;27;114416;-82
2023/10/04 07:05:32;;;;;;;;;;;19.70;51.60;;;;;;5028051;27;114257;-83
2023/10/04 07:07:59;;;;;;;;;;;19.70;51.90;;;;;;5044713;27;115010;-82
2023/10/04 07:10:27;;;;;;;;;;;19.80;51.80;;;;;;5044670;27;114689;-83
2023/10/04 07:12:56;;;;;;;;;;;19.80;51.40;;;;;;5044953;27;114340;-83
2023/10/04 07:15:35;;;;;;;;;;;19.80;51.60;;;;;;5045184;27;114324;-82
2023/10/04 07:18:06;;;;;;;;;;;19.80;51.30;;;;;;5026410;27;116531;-82
2023/10/04 07:20:34;;;;;;;;;;;19.80;51.40;;;;;;5026480;27;115215;-84
2023/10/04 07:23:03;;;;;;;;;;;19.80;51.20;;;;;;5045155;27;114427;-82
2023/10/04 07:25:31;;;;;;;;;;;19.80;51.00;;;;;;5045215;27;114048;-82
2023/10/04 07:28:01;;;;;;;;;;;19.80;50.80;;;;;;5026187;27;115396;-83
2023/10/04 07:30:33;;;;;;;;;;;19.80;51.20;;;;;;5044863;27;114581;-82
2023/10/04 07:33:01;;;;;;;;;;;19.80;50.80;;;;;;5045113;27;114362;-83
2023/10/04 07:35:28;;;;;;;;;;;19.80;51.20;;;;;;5027212;27;114130;-82
2023/10/04 07:37:55;;;;;;;;;;;19.90;50.90;;;;;;5044086;27;115037;-82
2023/10/04 07:40:26;;;;;;;;;;;20.00;50.80;;;;;;5044506;27;115057;-83
2023/10/04 07:42:53;;;;;;;;;;;20.00;50.70;;;;;;5044711;27;114059;-80
2023/10/04 07:45:21;;;;;;;;;;;20.00;50.70;;;;;;5045118;27;114156;-82
2023/10/04 07:47:48;;;;;;;;;;;20.00;50.10;;;;;;5009157;27;117978;-82
2023/10/04 07:50:22;;;;;;;;;;;20.00;50.10;;;;;;5026322;27;114837;-81
2023/10/04 07:52:50;;;;;;;;;;;20.00;50.30;;;;;;5025559;27;114330;-83
2023/10/04 07:55:22;;;;;;;;;;;20.00;50.00;;;;;;5044135;27;114215;-82
2023/10/04 07:57:50;;;;;;;;;;;20.00;49.50;;;;;;5044265;27;115552;-81
2023/10/04 08:00:17;;;;;;;;;;;19.90;49.60;;;;;;5044021;27;114726;-83
2023/10/04 08:02:50;;;;;;;;;;;19.90;49.90;;;;;;5026416;27;114234;-83
2023/10/04 08:05:19;;;;;;;;;;;19.90;49.60;;;;;;5010721;27;114268;-83
2023/10/04 08:07:48;;;;;;;;;;;20.00;49.50;;;;;;5025951;27;115186;-81
2023/10/04 08:10:18;;;;;;;;;;;19.90;49.30;;;;;;5025381;27;116334;-82
2023/10/04 08:12:46;;;;;;;;;;;20.00;49.50;;;;;;5044444;27;114243;-81
2023/10/04 08:15:19;;;;;;;;;;;20.00;49.50;;;;;;5044605;27;113991;-82
2023/10/04 08:17:49;;;;;;;;;;;20.00;49.60;;;;;;5043559;27;117623;-83
2023/10/04 08:20:16;;;;;;;;;;;20.10;49.40;;;;;;5043932;27;115032;-81
2023/10/04 08:22:44;;;;;;;;;;;20.10;49.30;;;;;;5044252;27;114448;-85
2023/10/04 08:25:16;;;;;;;;;;;20.00;48.70;;;;;;5044099;27;114204;-82
2023/10/04 08:27:43;;;;;;;;;;;20.00;48.80;;;;;;5042575;27;115436;-82
2023/10/04 08:30:12;;;;;;;;;;;19.90;48.90;;;;;;5025529;27;114822;-83
2023/10/04 08:32:41;;;;;;;;;;;19.90;49.10;;;;;;5009692;27;114165;-83
2023/10/04 08:35:09;;;;;;;;;;;20.00;49.00;;;;;;5025787;27;114508;-81
2023/10/04 08:37:36;;;;;;;;;;;20.10;48.80;;;;;;5025725;27;115556;-82
2023/10/04 08:40:03;;;;;;;;;;;20.10;48.60;;;;;;5025159;27;115283;-82
2023/10/04 08:42:30;;;;;;;;;;;20.10;48.00;;;;;;5026190;27;114410;-83
2023/10/04 08:44:58;;;;;;;;;;;19.90;47.00;;;;;;5044277;27;114256;-82
2023/10/04 08:47:25;;;;;;;;;;;19.70;47.40;;;;;;4991655;27;117074;-83
2023/10/04 08:49:55;;;;;;;;;;;19.80;47.50;;;;;;5042970;27;116954;-82
2023/10/04 08:52:35;;;;;;;;;;;19.80;47.50;;;;;;5025686;27;114536;-83
2023/10/04 08:55:07;;;;;;;;;;;19.70;47.30;;;;;;5009058;27;114317;-83
2023/10/04 08:57:36;;;;;;;;;;;19.70;47.50;;;;;;5043193;27;114869;-83
2023/10/04 09:00:10;;;;;;;;;;;19.70;47.20;;;;;;5025831;27;115336;-81
2023/10/04 09:02:55;;;;;;;;;;;19.70;47.50;;;;;;5043696;27;114220;-82
2023/10/04 09:05:23;;;;;;;;;;;19.70;47.20;;;;;;5025770;27;114445;-82
2023/10/04 09:07:51;;;;;;;;;;;19.80;47.60;;;;;;5043684;27;114893;-82
2023/10/04 09:10:18;;;;;;;;;;;19.90;47.80;;;;;;5027561;27;117475;-83
2023/10/04 09:12:48;;;;;;;;;;;20.00;47.20;;;;;;5029665;27;114443;-82
2023/10/04 09:15:25;;;;;;;;;;;20.00;47.30;;;;;;5047357;27;114390;-82
2023/10/04 09:17:57;;;;;;;;;;;20.20;47.30;;;;;;5022351;27;115432;-82
2023/10/04 09:20:29;;;;;;;;;;;20.20;46.70;;;;;;5013404;27;117702;-84
2023/10/04 09:22:59;;;;;;;;;;;20.20;46.10;;;;;;5039849;27;114367;-82
2023/10/04 09:25:36;;;;;;;;;;;20.10;46.10;;;;;;5008635;28;114344;-82
2023/10/04 09:28:09;;;;;;;;;;;20.10;46.50;;;;;;5013746;27;115011;-82
2023/10/04 09:30:36;;;;;;;;;;;20.20;46.70;;;;;;5028397;27;114584;-82
2023/10/04 09:33:04;;;;;;;;;;;20.20;46.70;;;;;;5010086;28;114267;-81
2023/10/04 09:35:42;;;;;;;;;;;20.30;46.20;;;;;;5027459;28;114460;-81
2023/10/04 09:38:14;;;;;;;;;;;20.20;46.00;;;;;;5007102;28;117124;-82
2023/10/04 09:40:59;;;;;;;;;;;20.20;46.40;;;;;;5008228;28;114553;-81
2023/10/04 09:43:32;;;;;;;;;;;20.20;46.70;;;;;;5027168;27;114200;-81
2023/10/04 09:45:59;;;;;;;;;;;20.30;46.80;;;;;;5024373;28;114327;-81
2023/10/04 09:48:33;;;;;;;;;;;20.30;46.30;;;;;;5041126;27;114929;-82
2023/10/04 09:51:01;;;;;;;;;;;20.30;45.90;;;;;;5006563;28;117170;-82
2023/10/04 09:53:31;;;;;;;;;;;20.20;46.10;;;;;;5026620;28;114484;-81
2023/10/04 09:55:59;;;;;;;;;;;20.20;46.20;;;;;;5007879;28;115158;-81
2023/10/04 09:58:26;;;;;;;;;;;20.20;46.30;;;;;;4991047;28;114918;-81
2023/10/04 10:00:53;;;;;;;;;;;20.10;46.00;;;;;;5007802;28;114539;-83
2023/10/04 10:03:20;;;;;;;;;;;20.10;45.90;;;;;;5026197;28;114555;-82
2023/10/04 10:05:48;;;;;;;;;;;20.00;45.80;;;;;;5008568;28;114291;-82
2023/10/04 10:08:15;;;;;;;;;;;19.90;46.00;;;;;;5007045;28;116020;-82
2023/10/04 10:10:42;;;;;;;;;;;20.00;46.10;;;;;;5007360;28;114604;-82
2023/10/04 10:13:09;;;;;;;;;;;20.00;46.30;;;;;;5041508;27;114487;-82
2023/10/04 10:15:36;;;;;;;;;;;20.10;46.50;;;;;;5025699;28;114286;-82
2023/10/04 10:18:07;;;;;;;;;;;20.30;46.60;;;;;;5007611;27;114803;-83
2023/10/04 10:20:34;;;;;;;;;;;20.30;46.50;;;;;;5024778;28;114765;-82
2023/10/04 10:23:02;;;;;;;;;;;20.40;46.20;;;;;;5007703;28;114360;-79
2023/10/04 10:25:30;;;;;;;;;;;20.40;46.30;;;;;;5026142;28;114415;-80
2023/10/04 10:27:57;;;;;;;;;;;20.40;45.80;;;;;;5024714;28;116125;-81
2023/10/04 10:30:24;;;;;;;;;;;20.40;45.70;;;;;;5025026;28;115289;-81
2023/10/04 10:32:54;;;;;;;;;;;20.40;45.70;;;;;;5025169;28;114107;-81
2023/10/04 10:35:40;;;;;;;;;;;20.40;45.40;;;;;;5007845;28;114377;-81
2023/10/04 10:38:26;;;;;;;;;;;20.30;45.10;;;;;;5006616;28;118264;-82
2023/10/04 10:40:53;;;;;;;;;;;20.30;45.20;;;;;;5024886;28;114533;-82
2023/10/04 10:43:20;;;;;;;;;;;20.30;45.30;;;;;;5007867;28;114422;-81
2023/10/04 10:45:47;;;;;;;;;;;20.30;45.20;;;;;;5007692;28;114612;-81
2023/10/04 10:48:14;;;;;;;;;;;20.30;45.30;;;;;;5006760;28;114971;-82
2023/10/04 10:50:42;;;;;;;;;;;20.30;44.60;;;;;;5005864;28;116445;-81
2023/10/04 10:53:10;;;;;;;;;;;20.20;44.60;;;;;;5024136;28;114293;-81
2023/10/04 10:55:41;;;;;;;;;;;20.20;44.70;;;;;;4990782;28;114309;-80
2023/10/04 10:58:08;;;;;;;;;;;20.20;44.90;;;;;;5024239;28;115306;-81
2023/10/04 11:00:35;;;;;;;;;;;20.30;45.00;;;;;;5024710;28;115081;-81
2023/10/04 11:03:09;;;;;;;;;;;20.30;45.00;;;;;;5025068;28;114115;-81
2023/10/04 11:05:36;;;;;;;;;;;20.40;45.30;;;;;;5025114;28;113982;-81
2023/10/04 11:08:06;;;;;;;;;;;20.50;44.90;;;;;;5006452;28;115092;-82
2023/10/04 11:10:36;;;;;;;;;;;20.50;44.50;;;;;;5024468;28;114651;-81
2023/10/04 11:13:07;;;;;;;;;;;20.60;44.50;;;;;;5007512;28;114439;-82
2023/10/04 11:15:36;;;;;;;;;;;20.60;44.30;;;;;;5025568;28;114123;-82
2023/10/04 11:18:06;;;;;;;;;;;20.70;44.60;;;;;;5025207;28;115451;-82
2023/10/04 11:20:37;;;;;;;;;;;20.70;44.80;;;;;;4990246;28;118041;-81
2023/10/04 11:23:05;;;;;;;;;;;20.80;44.00;;;;;;4987361;28;114516;-83
2023/10/04 11:25:35;;;;;;;;;;;20.70;44.10;;;;;;4987187;28;114284;-82
2023/10/04 11:28:03;;;;;;;;;;;20.70;44.30;;;;;;5004737;28;115646;-81
2023/10/04 11:30:33;;;;;;;;;;;20.80;44.20;;;;;;5005267;28;115738;-82
2023/10/04 11:33:01;;;;;;;;;;;20.70;44.30;;;;;;4987176;28;114350;-82
2023/10/04 11:35:32;;;;;;;;;;;20.70;44.10;;;;;;5005053;28;114262;-82
2023/10/04 11:38:05;;;;;;;;;;;20.60;44.20;;;;;;5003349;28;114932;-82
2023/10/04 11:40:33;;;;;;;;;;;20.50;44.10;;;;;;5002691;28;118829;-82
2023/10/04 11:43:00;;;;;;;;;;;20.40;44.20;;;;;;5004248;28;114222;-82
2023/10/04 11:45:28;;;;;;;;;;;20.30;44.10;;;;;;5005206;28;114253;-82
2023/10/04 11:48:08;;;;;;;;;;;20.20;43.90;;;;;;5003819;28;114896;-82
2023/10/04 11:50:52;;;;;;;;;;;20.10;44.00;;;;;;5003281;28;115017;-82
2023/10/04 11:53:35;;;;;;;;;;;20.10;44.10;;;;;;5004660;28;114324;-81
2023/10/04 11:56:06;;;;;;;;;;;20.10;44.30;;;;;;5003363;28;114552;-82
2023/10/04 11:58:47;;;;;;;;;;;20.20;44.50;;;;;;5001764;28;115772;-82
2023/10/04 12:01:15;;;;;;;;;;;20.20;44.20;;;;;;5003797;28;114912;-82
2023/10/04 12:03:42;;;;;;;;;;;20.10;44.10;;;;;;5004938;28;114100;-81
2023/10/04 12:06:14;;;;;;;;;;;20.00;44.20;;;;;;5005240;28;114136;-80
2023/10/04 12:08:41;;;;;;;;;;;20.00;44.50;;;;;;5004508;28;114625;-81
2023/10/04 12:11:21;;;;;;;;;;;20.00;44.50;;;;;;5002807;28;116041;-82
2023/10/04 12:13:49;;;;;;;;;;;20.00;44.70;;;;;;5002415;28;114224;-82
2023/10/04 12:16:20;;;;;;;;;;;19.90;44.80;;;;;;5003009;28;114313;-80
2023/10/04 12:18:51;;;;;;;;;;;19.90;44.80;;;;;;4986646;28;116734;-81
2023/10/04 12:21:20;;;;;;;;;;;19.90;44.90;;;;;;5001469;28;116351;-81
2023/10/04 12:23:48;;;;;;;;;;;19.90;45.00;;;;;;5002952;28;114315;-81
2023/10/04 12:26:18;;;;;;;;;;;19.90;45.00;;;;;;5004196;28;114228;-82
2023/10/04 12:28:45;;;;;;;;;;;20.00;45.20;;;;;;5003532;28;115151;-82
2023/10/04 12:31:15;;;;;;;;;;;20.10;45.20;;;;;;4986491;28;117398;-81
2023/10/04 12:33:46;;;;;;;;;;;20.20;44.90;;;;;;5003710;28;114529;-82
2023/10/04 12:36:15;;;;;;;;;;;20.20;45.10;;;;;;5004604;28;114393;-82
2023/10/04 12:38:44;;;;;;;;;;;20.30;44.90;;;;;;5002989;28;114862;-81
2023/10/04 12:41:11;;;;;;;;;;;20.30;44.70;;;;;;5003337;28;114585;-80
2023/10/04 12:43:38;;;;;;;;;;;20.30;44.60;;;;;;4988992;28;114456;-82
2023/10/04 12:46:06;;;;;;;;;;;20.30;44.20;;;;;;5007765;28;114119;-82
2023/10/04 12:48:34;;;;;;;;;;;20.20;43.80;;;;;;5006586;28;116088;-83
2023/10/04 12:51:01;;;;;;;;;;;20.10;44.00;;;;;;5005676;28;114762;-82
2023/10/04 12:53:28;;;;;;;;;;;20.10;44.00;;;;;;5006469;28;114114;-82
2023/10/04 12:55:55;;;;;;;;;;;20.00;43.90;;;;;;5007512;28;114067;-81
2023/10/04 12:58:22;;;;;;;;;;;19.90;43.90;;;;;;5006191;28;114963;-83
2023/10/04 13:00:50;;;;;;;;;;;19.80;44.00;;;;;;5005306;28;114613;-82
2023/10/04 13:03:20;;;;;;;;;;;19.80;44.10;;;;;;5005703;28;114354;-83
2023/10/04 13:05:47;;;;;;;;;;;19.80;44.20;;;;;;5006014;28;114503;-82
2023/10/04 13:08:20;;;;;;;;;;;19.70;44.40;;;;;;5006436;28;114955;-82
2023/10/04 13:10:48;;;;;;;;;;;19.80;44.60;;;;;;5006230;28;114613;-82
2023/10/04 13:13:15;;;;;;;;;;;19.80;44.70;;;;;;5006964;28;114216;-81
2023/10/04 13:15:43;;;;;;;;;;;19.80;44.80;;;;;;5006832;28;114324;-81
2023/10/04 13:18:11;;;;;;;;;;;19.80;44.80;;;;;;5006121;28;115818;-81
2023/10/04 13:20:41;;;;;;;;;;;19.80;44.90;;;;;;4988617;28;115791;-82
2023/10/04 13:23:08;;;;;;;;;;;19.80;44.90;;;;;;5006639;28;114337;-82
2023/10/04 13:25:36;;;;;;;;;;;19.80;44.60;;;;;;5005857;28;114328;-82
2023/10/04 13:28:05;;;;;;;;;;;19.70;44.30;;;;;;5004400;28;115081;-82
2023/10/04 13:30:33;;;;;;;;;;;19.50;44.60;;;;;;4988590;28;114610;-81
2023/10/04 13:33:02;;;;;;;;;;;19.50;44.60;;;;;;5006661;28;114198;-81
2023/10/04 13:35:29;;;;;;;;;;;19.50;44.70;;;;;;5005371;28;114416;-80
2023/10/04 13:37:56;;;;;;;;;;;19.50;44.70;;;;;;5005782;28;114749;-81
2023/10/04 13:40:23;;;;;;;;;;;19.50;44.70;;;;;;5005692;28;114577;-81
2023/10/04 13:42:50;;;;;;;;;;;19.40;44.70;;;;;;5006720;28;114689;-81
2023/10/04 13:45:21;;;;;;;;;;;19.40;44.80;;;;;;5006076;28;114408;-81
2023/10/04 13:47:48;;;;;;;;;;;19.40;44.80;;;;;;5005918;28;114305;-81
2023/10/04 13:50:22;;;;;;;;;;;19.40;44.90;;;;;;4987747;28;114984;-81
2023/10/04 13:52:50;;;;;;;;;;;19.40;44.80;;;;;;5004603;28;114482;-82
2023/10/04 13:55:25;;;;;;;;;;;19.40;44.80;;;;;;4988988;28;114434;-81
2023/10/04 13:57:55;;;;;;;;;;;19.40;45.00;;;;;;5004294;28;114906;-82
2023/10/04 14:00:23;;;;;;;;;;;19.40;45.10;;;;;;5004840;28;115705;-82
2023/10/04 14:02:51;;;;;;;;;;;19.50;45.10;;;;;;4988251;28;114174;-81
2023/10/04 14:05:19;;;;;;;;;;;19.50;45.20;;;;;;5005705;28;114254;-82
2023/10/04 14:07:53;;;;;;;;;;;19.40;44.80;;;;;;5005283;28;114847;-82
2023/10/04 14:10:24;;;;;;;;;;;19.40;44.80;;;;;;4989189;28;115150;-82
2023/10/04 14:12:55;;;;;;;;;;;19.30;44.70;;;;;;5005047;28;114291;-82
2023/10/04 14:15:24;;;;;;;;;;;19.20;45.00;;;;;;5007142;28;114462;-82